sensor_id;sensor_type;location;lat;lon;timestamp;P1;durP1;ratioP1;P2;durP2;ratioP2
10667;SDS011;5382;42.136;24.796;2022-11-20T00:02:17;33.30;;;24.48;;
10667;SDS011;5382;42.136;24.796;2022-11-20T00:04:44;34.83;;;25.15;;
10667;SDS011;5382;42.136;24.796;2022-11-20T00:07:11;28.77;;;19.55;;
10667;SDS011;5382;42.136;24.796;2022-11-20T00:09:37;34.20;;;22.42;;
10667;SDS011;5382;42.136;24.796;2022-11-20T00:12:04;36.75;;;26.05;;
10667;SDS011;5382;42.136;24.796;2022-11-20T00:14:31;30.85;;;24.95;;
10667;SDS011;5382;42.136;24.796;2022-11-20T00:16:59;31.20;;;25.20;;
10667;SDS011;5382;42.136;24.796;2022-11-20T00:19:26;31.48;;;23.10;;
10667;SDS011;5382;42.136;24.796;2022-11-20T00:21:53;26.38;;;20.65;;
10667;SDS011;5382;42.136;24.796;2022-11-20T00:24:20;28.48;;;22.10;;
10667;SDS011;5382;42.136;24.796;2022-11-20T00:26:47;25.38;;;22.52;;
10667;SDS011;5382;42.136;24.796;2022-11-20T00:29:14;34.10;;;22.33;;
10667;SDS011;5382;42.136;24.796;2022-11-20T00:31:40;30.92;;;23.60;;
10667;SDS011;5382;42.136;24.796;2022-11-20T00:34:09;28.63;;;22.13;;
10667;SDS011;5382;42.136;24.796;2022-11-20T00:36:36;29.30;;;19.42;;
10667;SDS011;5382;42.136;24.796;2022-11-20T00:39:03;30.25;;;23.10;;
10667;SDS011;5382;42.136;24.796;2022-11-20T00:41:30;21.88;;;14.25;;
10667;SDS011;5382;42.136;24.796;2022-11-20T00:43:57;26.75;;;20.45;;
10667;SDS011;5382;42.136;24.796;2022-11-20T00:46:24;23.92;;;17.85;;
10667;SDS011;5382;42.136;24.796;2022-11-20T00:48:52;30.02;;;22.15;;
10667;SDS011;5382;42.136;24.796;2022-11-20T00:51:22;28.67;;;21.75;;
10667;SDS011;5382;42.136;24.796;2022-11-20T00:53:50;27.08;;;21.23;;
10667;SDS011;5382;42.136;24.796;2022-11-20T00:56:18;30.02;;;15.68;;
10667;SDS011;5382;42.136;24.796;2022-11-20T00:58:45;24.17;;;17.67;;
10667;SDS011;5382;42.136;24.796;2022-11-20T01:01:14;24.75;;;18.48;;
10667;SDS011;5382;42.136;24.796;2022-11-20T01:03:43;24.85;;;20.88;;
10667;SDS011;5382;42.136;24.796;2022-11-20T01:06:12;28.42;;;22.00;;
10667;SDS011;5382;42.136;24.796;2022-11-20T01:08:41;27.35;;;19.60;;
10667;SDS011;5382;42.136;24.796;2022-11-20T01:11:09;27.23;;;19.75;;
10667;SDS011;5382;42.136;24.796;2022-11-20T01:13:37;30.13;;;22.05;;
10667;SDS011;5382;42.136;24.796;2022-11-20T01:16:05;29.52;;;22.35;;
10667;SDS011;5382;42.136;24.796;2022-11-20T01:18:34;25.25;;;20.58;;
10667;SDS011;5382;42.136;24.796;2022-11-20T01:21:02;32.20;;;22.60;;
10667;SDS011;5382;42.136;24.796;2022-11-20T01:23:31;26.38;;;22.65;;
10667;SDS011;5382;42.136;24.796;2022-11-20T01:26:00;28.27;;;20.98;;
10667;SDS011;5382;42.136;24.796;2022-11-20T01:28:28;24.58;;;16.65;;
10667;SDS011;5382;42.136;24.796;2022-11-20T01:30:55;31.60;;;22.08;;
10667;SDS011;5382;42.136;24.796;2022-11-20T01:33:23;28.60;;;22.85;;
10667;SDS011;5382;42.136;24.796;2022-11-20T01:35:50;33.22;;;20.85;;
10667;SDS011;5382;42.136;24.796;2022-11-20T01:38:17;26.23;;;19.08;;
10667;SDS011;5382;42.136;24.796;2022-11-20T01:40:45;26.83;;;19.17;;
10667;SDS011;5382;42.136;24.796;2022-11-20T01:43:14;26.67;;;18.35;;
10667;SDS011;5382;42.136;24.796;2022-11-20T01:46:05;32.15;;;23.52;;
10667;SDS011;5382;42.136;24.796;2022-11-20T01:48:42;31.92;;;24.42;;
10667;SDS011;5382;42.136;24.796;2022-11-20T01:51:15;28.98;;;23.50;;
10667;SDS011;5382;42.136;24.796;2022-11-20T01:53:47;32.03;;;23.95;;
10667;SDS011;5382;42.136;24.796;2022-11-20T01:56:15;28.95;;;19.92;;
10667;SDS011;5382;42.136;24.796;2022-11-20T01:58:45;28.17;;;23.38;;
10667;SDS011;5382;42.136;24.796;2022-11-20T02:01:16;25.70;;;17.85;;
10667;SDS011;5382;42.136;24.796;2022-11-20T02:03:43;28.67;;;18.50;;
10667;SDS011;5382;42.136;24.796;2022-11-20T02:06:12;28.08;;;22.67;;
10667;SDS011;5382;42.136;24.796;2022-11-20T02:08:43;33.38;;;23.95;;
10667;SDS011;5382;42.136;24.796;2022-11-20T02:11:10;32.15;;;23.73;;
10667;SDS011;5382;42.136;24.796;2022-11-20T02:13:38;29.35;;;17.83;;
10667;SDS011;5382;42.136;24.796;2022-11-20T02:16:22;26.42;;;19.60;;
10667;SDS011;5382;42.136;24.796;2022-11-20T02:18:52;24.23;;;17.23;;
10667;SDS011;5382;42.136;24.796;2022-11-20T02:21:33;24.27;;;15.90;;
10667;SDS011;5382;42.136;24.796;2022-11-20T02:24:05;30.55;;;18.67;;
10667;SDS011;5382;42.136;24.796;2022-11-20T02:26:36;29.20;;;20.42;;
10667;SDS011;5382;42.136;24.796;2022-11-20T02:29:07;34.50;;;21.92;;
10667;SDS011;5382;42.136;24.796;2022-11-20T02:31:37;29.13;;;23.15;;
10667;SDS011;5382;42.136;24.796;2022-11-20T02:34:06;28.88;;;22.45;;
10667;SDS011;5382;42.136;24.796;2022-11-20T02:36:33;32.33;;;24.60;;
10667;SDS011;5382;42.136;24.796;2022-11-20T02:39:02;25.25;;;19.60;;
10667;SDS011;5382;42.136;24.796;2022-11-20T02:41:33;28.17;;;20.23;;
10667;SDS011;5382;42.136;24.796;2022-11-20T02:44:02;31.65;;;23.23;;
10667;SDS011;5382;42.136;24.796;2022-11-20T02:46:30;28.88;;;18.13;;
10667;SDS011;5382;42.136;24.796;2022-11-20T02:48:57;27.60;;;18.52;;
10667;SDS011;5382;42.136;24.796;2022-11-20T02:51:23;29.85;;;22.90;;
10667;SDS011;5382;42.136;24.796;2022-11-20T02:53:50;28.83;;;19.45;;
10667;SDS011;5382;42.136;24.796;2022-11-20T02:56:17;31.17;;;22.40;;
10667;SDS011;5382;42.136;24.796;2022-11-20T02:58:45;30.60;;;24.42;;
10667;SDS011;5382;42.136;24.796;2022-11-20T03:01:12;28.95;;;23.30;;
10667;SDS011;5382;42.136;24.796;2022-11-20T03:03:40;26.02;;;18.55;;
10667;SDS011;5382;42.136;24.796;2022-11-20T03:06:06;30.00;;;22.63;;
10667;SDS011;5382;42.136;24.796;2022-11-20T03:08:34;34.72;;;24.13;;
10667;SDS011;5382;42.136;24.796;2022-11-20T03:11:04;29.52;;;20.85;;
10667;SDS011;5382;42.136;24.796;2022-11-20T03:13:32;29.25;;;23.85;;
10667;SDS011;5382;42.136;24.796;2022-11-20T03:16:05;30.60;;;18.17;;
10667;SDS011;5382;42.136;24.796;2022-11-20T03:18:36;25.08;;;17.27;;
10667;SDS011;5382;42.136;24.796;2022-11-20T03:21:03;26.45;;;18.45;;
10667;SDS011;5382;42.136;24.796;2022-11-20T03:23:31;33.30;;;23.95;;
10667;SDS011;5382;42.136;24.796;2022-11-20T03:26:10;26.50;;;23.13;;
10667;SDS011;5382;42.136;24.796;2022-11-20T03:28:38;26.27;;;21.98;;
10667;SDS011;5382;42.136;24.796;2022-11-20T03:31:08;29.17;;;21.70;;
10667;SDS011;5382;42.136;24.796;2022-11-20T03:33:36;28.88;;;22.20;;
10667;SDS011;5382;42.136;24.796;2022-11-20T03:36:03;23.58;;;16.58;;
10667;SDS011;5382;42.136;24.796;2022-11-20T03:38:31;23.13;;;15.60;;
10667;SDS011;5382;42.136;24.796;2022-11-20T03:40:59;24.98;;;12.85;;
10667;SDS011;5382;42.136;24.796;2022-11-20T03:43:27;29.30;;;15.18;;
10667;SDS011;5382;42.136;24.796;2022-11-20T03:45:54;20.33;;;16.40;;
10667;SDS011;5382;42.136;24.796;2022-11-20T03:48:22;21.23;;;16.27;;
10667;SDS011;5382;42.136;24.796;2022-11-20T03:50:49;17.27;;;10.75;;
10667;SDS011;5382;42.136;24.796;2022-11-20T03:53:16;14.45;;;11.68;;
10667;SDS011;5382;42.136;24.796;2022-11-20T03:55:43;15.68;;;11.60;;
10667;SDS011;5382;42.136;24.796;2022-11-20T03:58:10;17.35;;;10.80;;
10667;SDS011;5382;42.136;24.796;2022-11-20T04:00:38;18.65;;;9.70;;
10667;SDS011;5382;42.136;24.796;2022-11-20T04:03:05;16.67;;;8.68;;
10667;SDS011;5382;42.136;24.796;2022-11-20T04:05:34;16.67;;;10.23;;
10667;SDS011;5382;42.136;24.796;2022-11-20T04:08:01;20.40;;;8.55;;
10667;SDS011;5382;42.136;24.796;2022-11-20T04:10:27;20.20;;;13.10;;
10667;SDS011;5382;42.136;24.796;2022-11-20T04:12:55;15.45;;;9.55;;
10667;SDS011;5382;42.136;24.796;2022-11-20T04:15:21;17.60;;;6.55;;
10667;SDS011;5382;42.136;24.796;2022-11-20T04:17:48;11.13;;;7.35;;
10667;SDS011;5382;42.136;24.796;2022-11-20T04:20:15;12.32;;;6.78;;
10667;SDS011;5382;42.136;24.796;2022-11-20T04:22:43;17.95;;;8.60;;
10667;SDS011;5382;42.136;24.796;2022-11-20T04:25:10;16.58;;;8.65;;
10667;SDS011;5382;42.136;24.796;2022-11-20T04:27:37;12.30;;;7.47;;
10667;SDS011;5382;42.136;24.796;2022-11-20T04:30:04;14.02;;;7.47;;
10667;SDS011;5382;42.136;24.796;2022-11-20T04:32:31;9.90;;;7.53;;
10667;SDS011;5382;42.136;24.796;2022-11-20T04:34:58;16.45;;;10.70;;
10667;SDS011;5382;42.136;24.796;2022-11-20T04:37:25;9.60;;;5.43;;
10667;SDS011;5382;42.136;24.796;2022-11-20T04:39:53;9.68;;;5.25;;
10667;SDS011;5382;42.136;24.796;2022-11-20T04:42:20;9.52;;;6.70;;
10667;SDS011;5382;42.136;24.796;2022-11-20T04:44:56;9.73;;;6.68;;
10667;SDS011;5382;42.136;24.796;2022-11-20T04:47:23;14.30;;;5.90;;
10667;SDS011;5382;42.136;24.796;2022-11-20T04:49:50;11.68;;;7.32;;
10667;SDS011;5382;42.136;24.796;2022-11-20T04:52:17;12.45;;;7.70;;
10667;SDS011;5382;42.136;24.796;2022-11-20T04:54:43;10.98;;;6.10;;
10667;SDS011;5382;42.136;24.796;2022-11-20T04:57:13;12.93;;;5.72;;
10667;SDS011;5382;42.136;24.796;2022-11-20T04:59:41;9.80;;;5.63;;
10667;SDS011;5382;42.136;24.796;2022-11-20T05:02:08;12.57;;;6.75;;
10667;SDS011;5382;42.136;24.796;2022-11-20T05:04:35;12.82;;;6.00;;
10667;SDS011;5382;42.136;24.796;2022-11-20T05:07:02;10.50;;;4.45;;
10667;SDS011;5382;42.136;24.796;2022-11-20T05:09:29;12.45;;;4.10;;
10667;SDS011;5382;42.136;24.796;2022-11-20T05:11:56;13.68;;;5.43;;
10667;SDS011;5382;42.136;24.796;2022-11-20T05:14:24;14.38;;;6.85;;
10667;SDS011;5382;42.136;24.796;2022-11-20T05:16:51;14.40;;;7.30;;
10667;SDS011;5382;42.136;24.796;2022-11-20T05:19:18;20.30;;;9.45;;
10667;SDS011;5382;42.136;24.796;2022-11-20T05:21:45;13.18;;;5.72;;
10667;SDS011;5382;42.136;24.796;2022-11-20T05:24:11;13.45;;;5.35;;
10667;SDS011;5382;42.136;24.796;2022-11-20T05:26:38;14.80;;;6.88;;
10667;SDS011;5382;42.136;24.796;2022-11-20T05:29:05;11.10;;;6.50;;
10667;SDS011;5382;42.136;24.796;2022-11-20T05:31:33;10.75;;;6.05;;
10667;SDS011;5382;42.136;24.796;2022-11-20T05:34:01;10.73;;;6.03;;
10667;SDS011;5382;42.136;24.796;2022-11-20T05:36:28;12.50;;;5.50;;
10667;SDS011;5382;42.136;24.796;2022-11-20T05:38:56;10.35;;;5.75;;
10667;SDS011;5382;42.136;24.796;2022-11-20T05:41:22;13.95;;;7.18;;
10667;SDS011;5382;42.136;24.796;2022-11-20T05:43:49;15.45;;;7.50;;
10667;SDS011;5382;42.136;24.796;2022-11-20T05:46:17;14.05;;;6.53;;
10667;SDS011;5382;42.136;24.796;2022-11-20T05:48:47;12.57;;;6.28;;
10667;SDS011;5382;42.136;24.796;2022-11-20T05:51:15;12.73;;;6.60;;
10667;SDS011;5382;42.136;24.796;2022-11-20T05:53:44;11.38;;;5.93;;
10667;SDS011;5382;42.136;24.796;2022-11-20T05:56:12;16.35;;;9.88;;
10667;SDS011;5382;42.136;24.796;2022-11-20T05:58:40;13.07;;;6.82;;
10667;SDS011;5382;42.136;24.796;2022-11-20T06:01:08;14.85;;;6.63;;
10667;SDS011;5382;42.136;24.796;2022-11-20T06:03:37;8.52;;;4.93;;
10667;SDS011;5382;42.136;24.796;2022-11-20T06:06:07;12.23;;;6.50;;
10667;SDS011;5382;42.136;24.796;2022-11-20T06:08:33;10.68;;;6.72;;
10667;SDS011;5382;42.136;24.796;2022-11-20T06:11:02;11.38;;;5.95;;
10667;SDS011;5382;42.136;24.796;2022-11-20T06:13:30;12.48;;;6.32;;
10667;SDS011;5382;42.136;24.796;2022-11-20T06:15:57;12.95;;;6.43;;
10667;SDS011;5382;42.136;24.796;2022-11-20T06:18:25;12.07;;;6.15;;
10667;SDS011;5382;42.136;24.796;2022-11-20T06:20:58;6.90;;;4.40;;
10667;SDS011;5382;42.136;24.796;2022-11-20T06:23:28;8.82;;;4.97;;
10667;SDS011;5382;42.136;24.796;2022-11-20T06:25:56;10.18;;;5.05;;
10667;SDS011;5382;42.136;24.796;2022-11-20T06:28:23;8.55;;;4.85;;
10667;SDS011;5382;42.136;24.796;2022-11-20T06:30:50;12.95;;;4.95;;
10667;SDS011;5382;42.136;24.796;2022-11-20T06:33:16;9.30;;;4.75;;
10667;SDS011;5382;42.136;24.796;2022-11-20T06:35:43;10.73;;;5.03;;
10667;SDS011;5382;42.136;24.796;2022-11-20T06:38:13;10.70;;;5.60;;
10667;SDS011;5382;42.136;24.796;2022-11-20T06:40:41;15.30;;;5.50;;
10667;SDS011;5382;42.136;24.796;2022-11-20T06:43:08;8.73;;;4.95;;
10667;SDS011;5382;42.136;24.796;2022-11-20T06:45:37;12.00;;;4.53;;
10667;SDS011;5382;42.136;24.796;2022-11-20T06:48:04;9.27;;;4.13;;
10667;SDS011;5382;42.136;24.796;2022-11-20T06:50:31;11.02;;;4.78;;
10667;SDS011;5382;42.136;24.796;2022-11-20T06:53:00;8.45;;;4.43;;
10667;SDS011;5382;42.136;24.796;2022-11-20T06:55:27;11.57;;;4.68;;
10667;SDS011;5382;42.136;24.796;2022-11-20T06:57:55;11.70;;;5.18;;
10667;SDS011;5382;42.136;24.796;2022-11-20T07:00:22;8.15;;;5.10;;
10667;SDS011;5382;42.136;24.796;2022-11-20T07:02:49;9.60;;;4.53;;
10667;SDS011;5382;42.136;24.796;2022-11-20T07:05:16;9.95;;;4.45;;
10667;SDS011;5382;42.136;24.796;2022-11-20T07:07:43;8.07;;;4.10;;
10667;SDS011;5382;42.136;24.796;2022-11-20T07:10:10;8.65;;;3.92;;
10667;SDS011;5382;42.136;24.796;2022-11-20T07:12:37;8.85;;;4.22;;
10667;SDS011;5382;42.136;24.796;2022-11-20T07:15:08;11.15;;;4.05;;
10667;SDS011;5382;42.136;24.796;2022-11-20T07:17:35;7.10;;;4.10;;
10667;SDS011;5382;42.136;24.796;2022-11-20T07:20:02;8.65;;;4.25;;
10667;SDS011;5382;42.136;24.796;2022-11-20T07:22:29;7.30;;;4.00;;
10667;SDS011;5382;42.136;24.796;2022-11-20T07:24:56;10.30;;;4.60;;
10667;SDS011;5382;42.136;24.796;2022-11-20T07:27:22;10.38;;;4.43;;
10667;SDS011;5382;42.136;24.796;2022-11-20T07:29:49;11.15;;;5.10;;
10667;SDS011;5382;42.136;24.796;2022-11-20T07:32:17;9.60;;;4.82;;
10667;SDS011;5382;42.136;24.796;2022-11-20T07:34:44;9.75;;;5.60;;
10667;SDS011;5382;42.136;24.796;2022-11-20T07:37:11;11.52;;;5.45;;
10667;SDS011;5382;42.136;24.796;2022-11-20T07:39:38;12.02;;;6.20;;
10667;SDS011;5382;42.136;24.796;2022-11-20T07:42:05;10.57;;;6.28;;
10667;SDS011;5382;42.136;24.796;2022-11-20T07:44:32;10.32;;;6.65;;
10667;SDS011;5382;42.136;24.796;2022-11-20T07:46:59;10.43;;;6.38;;
10667;SDS011;5382;42.136;24.796;2022-11-20T07:49:27;13.35;;;6.93;;
10667;SDS011;5382;42.136;24.796;2022-11-20T07:51:54;12.02;;;6.68;;
10667;SDS011;5382;42.136;24.796;2022-11-20T07:54:21;11.93;;;6.60;;
10667;SDS011;5382;42.136;24.796;2022-11-20T07:56:48;15.40;;;6.78;;
10667;SDS011;5382;42.136;24.796;2022-11-20T07:59:15;12.80;;;6.03;;
10667;SDS011;5382;42.136;24.796;2022-11-20T08:01:42;14.30;;;5.93;;
10667;SDS011;5382;42.136;24.796;2022-11-20T08:04:09;11.82;;;5.60;;
10667;SDS011;5382;42.136;24.796;2022-11-20T08:06:37;11.35;;;5.53;;
10667;SDS011;5382;42.136;24.796;2022-11-20T08:09:04;10.80;;;5.35;;
10667;SDS011;5382;42.136;24.796;2022-11-20T08:11:31;14.52;;;5.68;;
10667;SDS011;5382;42.136;24.796;2022-11-20T08:14:15;6.25;;;4.63;;
10667;SDS011;5382;42.136;24.796;2022-11-20T08:16:43;9.73;;;5.40;;
10667;SDS011;5382;42.136;24.796;2022-11-20T08:19:11;8.57;;;5.50;;
10667;SDS011;5382;42.136;24.796;2022-11-20T08:21:39;12.10;;;5.25;;
10667;SDS011;5382;42.136;24.796;2022-11-20T08:24:06;32.20;;;23.17;;
10667;SDS011;5382;42.136;24.796;2022-11-20T08:26:34;14.05;;;6.25;;
10667;SDS011;5382;42.136;24.796;2022-11-20T08:29:02;10.75;;;5.40;;
10667;SDS011;5382;42.136;24.796;2022-11-20T08:31:29;11.68;;;5.38;;
10667;SDS011;5382;42.136;24.796;2022-11-20T08:33:57;8.43;;;4.38;;
10667;SDS011;5382;42.136;24.796;2022-11-20T08:36:23;7.28;;;4.57;;
10667;SDS011;5382;42.136;24.796;2022-11-20T08:38:53;9.88;;;4.72;;
10667;SDS011;5382;42.136;24.796;2022-11-20T08:41:21;12.80;;;4.68;;
10667;SDS011;5382;42.136;24.796;2022-11-20T08:43:52;8.35;;;5.05;;
10667;SDS011;5382;42.136;24.796;2022-11-20T08:46:21;11.15;;;5.30;;
10667;SDS011;5382;42.136;24.796;2022-11-20T08:48:48;10.20;;;4.55;;
10667;SDS011;5382;42.136;24.796;2022-11-20T08:51:15;6.80;;;4.88;;
10667;SDS011;5382;42.136;24.796;2022-11-20T08:53:42;12.30;;;5.07;;
10667;SDS011;5382;42.136;24.796;2022-11-20T08:56:14;11.82;;;4.10;;
10667;SDS011;5382;42.136;24.796;2022-11-20T08:58:42;6.72;;;4.40;;
10667;SDS011;5382;42.136;24.796;2022-11-20T09:01:09;6.40;;;4.28;;
10667;SDS011;5382;42.136;24.796;2022-11-20T09:03:39;10.05;;;4.28;;
10667;SDS011;5382;42.136;24.796;2022-11-20T09:06:06;6.85;;;3.80;;
10667;SDS011;5382;42.136;24.796;2022-11-20T09:08:34;9.98;;;3.88;;
10667;SDS011;5382;42.136;24.796;2022-11-20T09:11:01;6.95;;;4.00;;
10667;SDS011;5382;42.136;24.796;2022-11-20T09:13:31;9.63;;;3.80;;
10667;SDS011;5382;42.136;24.796;2022-11-20T09:15:59;11.45;;;3.83;;
10667;SDS011;5382;42.136;24.796;2022-11-20T09:18:27;4.80;;;3.33;;
10667;SDS011;5382;42.136;24.796;2022-11-20T09:20:56;7.50;;;3.30;;
10667;SDS011;5382;42.136;24.796;2022-11-20T09:23:23;5.75;;;3.33;;
10667;SDS011;5382;42.136;24.796;2022-11-20T09:25:51;6.72;;;3.38;;
10667;SDS011;5382;42.136;24.796;2022-11-20T09:28:20;9.40;;;3.80;;
10667;SDS011;5382;42.136;24.796;2022-11-20T09:30:48;8.85;;;4.22;;
10667;SDS011;5382;42.136;24.796;2022-11-20T09:33:15;8.55;;;4.78;;
10667;SDS011;5382;42.136;24.796;2022-11-20T09:35:42;13.00;;;4.75;;
10667;SDS011;5382;42.136;24.796;2022-11-20T09:38:10;10.13;;;4.88;;
10667;SDS011;5382;42.136;24.796;2022-11-20T09:40:39;7.68;;;4.90;;
10667;SDS011;5382;42.136;24.796;2022-11-20T09:43:12;9.55;;;4.68;;
10667;SDS011;5382;42.136;24.796;2022-11-20T09:45:50;7.05;;;4.00;;
10667;SDS011;5382;42.136;24.796;2022-11-20T09:48:36;9.65;;;4.00;;
10667;SDS011;5382;42.136;24.796;2022-11-20T09:51:26;8.23;;;3.70;;
10667;SDS011;5382;42.136;24.796;2022-11-20T09:54:07;11.82;;;4.07;;
10667;SDS011;5382;42.136;24.796;2022-11-20T09:56:42;7.55;;;3.65;;
10667;SDS011;5382;42.136;24.796;2022-11-20T09:59:14;7.70;;;2.95;;
10667;SDS011;5382;42.136;24.796;2022-11-20T10:01:53;7.55;;;3.10;;
10667;SDS011;5382;42.136;24.796;2022-11-20T10:04:38;7.72;;;3.15;;
10667;SDS011;5382;42.136;24.796;2022-11-20T10:07:15;5.70;;;2.85;;
10667;SDS011;5382;42.136;24.796;2022-11-20T10:09:49;6.65;;;3.03;;
10667;SDS011;5382;42.136;24.796;2022-11-20T10:12:20;8.43;;;2.80;;
10667;SDS011;5382;42.136;24.796;2022-11-20T10:15:06;7.68;;;3.13;;
10667;SDS011;5382;42.136;24.796;2022-11-20T10:20:38;9.98;;;3.65;;
10667;SDS011;5382;42.136;24.796;2022-11-20T10:23:28;9.18;;;3.70;;
10667;SDS011;5382;42.136;24.796;2022-11-20T10:26:14;7.55;;;3.78;;
10667;SDS011;5382;42.136;24.796;2022-11-20T10:28:48;10.27;;;3.70;;
10667;SDS011;5382;42.136;24.796;2022-11-20T10:31:28;13.38;;;5.32;;
10667;SDS011;5382;42.136;24.796;2022-11-20T10:34:00;12.52;;;5.07;;
10667;SDS011;5382;42.136;24.796;2022-11-20T10:36:34;10.35;;;4.60;;
10667;SDS011;5382;42.136;24.796;2022-11-20T10:39:05;11.98;;;3.92;;
10667;SDS011;5382;42.136;24.796;2022-11-20T10:41:41;9.43;;;3.65;;
10667;SDS011;5382;42.136;24.796;2022-11-20T10:44:09;9.13;;;3.30;;
10667;SDS011;5382;42.136;24.796;2022-11-20T10:47:01;12.13;;;4.00;;
10667;SDS011;5382;42.136;24.796;2022-11-20T10:49:31;9.57;;;3.53;;
10667;SDS011;5382;42.136;24.796;2022-11-20T10:52:02;12.50;;;3.70;;
10667;SDS011;5382;42.136;24.796;2022-11-20T10:54:37;7.30;;;3.58;;
10667;SDS011;5382;42.136;24.796;2022-11-20T10:57:14;12.70;;;4.03;;
10667;SDS011;5382;42.136;24.796;2022-11-20T10:59:54;11.90;;;3.97;;
10667;SDS011;5382;42.136;24.796;2022-11-20T11:02:32;8.82;;;4.03;;
10667;SDS011;5382;42.136;24.796;2022-11-20T11:05:07;12.35;;;3.95;;
10667;SDS011;5382;42.136;24.796;2022-11-20T11:07:41;10.23;;;4.32;;
10667;SDS011;5382;42.136;24.796;2022-11-20T11:10:14;10.90;;;5.07;;
10667;SDS011;5382;42.136;24.796;2022-11-20T11:12:44;9.75;;;5.75;;
10667;SDS011;5382;42.136;24.796;2022-11-20T11:15:13;15.48;;;6.07;;
10667;SDS011;5382;42.136;24.796;2022-11-20T11:17:46;12.95;;;6.10;;
10667;SDS011;5382;42.136;24.796;2022-11-20T11:20:18;15.60;;;5.60;;
10667;SDS011;5382;42.136;24.796;2022-11-20T11:22:47;12.80;;;4.32;;
10667;SDS011;5382;42.136;24.796;2022-11-20T11:25:20;11.35;;;5.40;;
10667;SDS011;5382;42.136;24.796;2022-11-20T11:27:50;14.25;;;7.05;;
10667;SDS011;5382;42.136;24.796;2022-11-20T11:30:18;18.13;;;7.63;;
10667;SDS011;5382;42.136;24.796;2022-11-20T11:32:46;16.20;;;6.65;;
10667;SDS011;5382;42.136;24.796;2022-11-20T11:35:25;15.65;;;5.75;;
10667;SDS011;5382;42.136;24.796;2022-11-20T11:37:54;14.30;;;6.45;;
10667;SDS011;5382;42.136;24.796;2022-11-20T11:40:32;18.83;;;6.63;;
10667;SDS011;5382;42.136;24.796;2022-11-20T11:43:02;14.65;;;6.45;;
10667;SDS011;5382;42.136;24.796;2022-11-20T11:45:52;15.93;;;6.57;;
10667;SDS011;5382;42.136;24.796;2022-11-20T11:48:20;10.82;;;6.15;;
10667;SDS011;5382;42.136;24.796;2022-11-20T11:50:49;16.80;;;6.72;;
10667;SDS011;5382;42.136;24.796;2022-11-20T11:53:17;11.85;;;5.90;;
10667;SDS011;5382;42.136;24.796;2022-11-20T11:55:46;10.65;;;5.88;;
10667;SDS011;5382;42.136;24.796;2022-11-20T11:58:37;13.35;;;5.20;;
10667;SDS011;5382;42.136;24.796;2022-11-20T12:01:14;15.85;;;4.93;;
10667;SDS011;5382;42.136;24.796;2022-11-20T12:03:52;13.23;;;5.53;;
10667;SDS011;5382;42.136;24.796;2022-11-20T12:06:27;11.15;;;4.88;;
10667;SDS011;5382;42.136;24.796;2022-11-20T12:08:57;12.82;;;4.80;;
10667;SDS011;5382;42.136;24.796;2022-11-20T12:11:30;12.02;;;5.28;;
10667;SDS011;5382;42.136;24.796;2022-11-20T12:14:02;12.25;;;5.82;;
10667;SDS011;5382;42.136;24.796;2022-11-20T12:16:36;12.82;;;4.80;;
10667;SDS011;5382;42.136;24.796;2022-11-20T12:19:07;9.27;;;4.75;;
10667;SDS011;5382;42.136;24.796;2022-11-20T12:21:40;19.38;;;6.45;;
10667;SDS011;5382;42.136;24.796;2022-11-20T12:24:33;19.63;;;6.75;;
10667;SDS011;5382;42.136;24.796;2022-11-20T12:27:34;11.30;;;5.50;;
10667;SDS011;5382;42.136;24.796;2022-11-20T12:30:10;10.68;;;5.07;;
10667;SDS011;5382;42.136;24.796;2022-11-20T12:35:37;12.98;;;6.55;;
10667;SDS011;5382;42.136;24.796;2022-11-20T12:38:29;13.35;;;6.43;;
10667;SDS011;5382;42.136;24.796;2022-11-20T12:41:11;11.43;;;6.60;;
10667;SDS011;5382;42.136;24.796;2022-11-20T12:44:05;21.95;;;10.20;;
10667;SDS011;5382;42.136;24.796;2022-11-20T12:47:06;18.67;;;8.23;;
10667;SDS011;5382;42.136;24.796;2022-11-20T12:49:45;19.63;;;8.73;;
10667;SDS011;5382;42.136;24.796;2022-11-20T12:52:20;18.00;;;7.72;;
10667;SDS011;5382;42.136;24.796;2022-11-20T12:55:10;19.20;;;7.00;;
10667;SDS011;5382;42.136;24.796;2022-11-20T12:57:45;17.13;;;6.78;;
10667;SDS011;5382;42.136;24.796;2022-11-20T13:00:17;18.23;;;8.70;;
10667;SDS011;5382;42.136;24.796;2022-11-20T13:02:58;13.05;;;7.43;;
10667;SDS011;5382;42.136;24.796;2022-11-20T13:05:37;14.13;;;7.20;;
10667;SDS011;5382;42.136;24.796;2022-11-20T13:08:18;12.38;;;5.80;;
10667;SDS011;5382;42.136;24.796;2022-11-20T13:10:49;11.10;;;5.82;;
10667;SDS011;5382;42.136;24.796;2022-11-20T13:13:23;14.38;;;5.45;;
10667;SDS011;5382;42.136;24.796;2022-11-20T13:15:58;15.50;;;5.88;;
10667;SDS011;5382;42.136;24.796;2022-11-20T13:18:31;11.02;;;4.32;;
10667;SDS011;5382;42.136;24.796;2022-11-20T13:21:12;12.27;;;4.43;;
10667;SDS011;5382;42.136;24.796;2022-11-20T13:23:40;12.68;;;5.07;;
10667;SDS011;5382;42.136;24.796;2022-11-20T13:26:15;17.50;;;7.03;;
10667;SDS011;5382;42.136;24.796;2022-11-20T13:28:45;18.58;;;6.40;;
10667;SDS011;5382;42.136;24.796;2022-11-20T13:31:23;17.27;;;6.13;;
10667;SDS011;5382;42.136;24.796;2022-11-20T13:33:56;16.48;;;4.97;;
10667;SDS011;5382;42.136;24.796;2022-11-20T13:36:24;13.48;;;6.13;;
10667;SDS011;5382;42.136;24.796;2022-11-20T13:38:53;9.95;;;5.20;;
10667;SDS011;5382;42.136;24.796;2022-11-20T13:41:27;13.80;;;5.03;;
10667;SDS011;5382;42.136;24.796;2022-11-20T13:43:59;13.77;;;4.22;;
10667;SDS011;5382;42.136;24.796;2022-11-20T13:46:35;10.77;;;3.53;;
10667;SDS011;5382;42.136;24.796;2022-11-20T13:49:07;11.93;;;3.65;;
10667;SDS011;5382;42.136;24.796;2022-11-20T13:51:40;13.25;;;3.97;;
10667;SDS011;5382;42.136;24.796;2022-11-20T13:57:14;12.55;;;3.38;;
10667;SDS011;5382;42.136;24.796;2022-11-20T14:00:02;11.20;;;3.28;;
10667;SDS011;5382;42.136;24.796;2022-11-20T14:02:36;11.10;;;3.30;;
10667;SDS011;5382;42.136;24.796;2022-11-20T14:05:03;14.32;;;2.53;;
10667;SDS011;5382;42.136;24.796;2022-11-20T14:07:32;13.65;;;1.90;;
10667;SDS011;5382;42.136;24.796;2022-11-20T14:10:04;5.95;;;1.45;;
10667;SDS011;5382;42.136;24.796;2022-11-20T14:12:33;5.13;;;1.50;;
10667;SDS011;5382;42.136;24.796;2022-11-20T14:15:02;8.25;;;1.40;;
10667;SDS011;5382;42.136;24.796;2022-11-20T14:17:30;5.95;;;1.20;;
10667;SDS011;5382;42.136;24.796;2022-11-20T14:19:58;4.32;;;1.00;;
10667;SDS011;5382;42.136;24.796;2022-11-20T14:22:28;2.83;;;0.73;;
10667;SDS011;5382;42.136;24.796;2022-11-20T14:25:02;2.05;;;0.82;;
10667;SDS011;5382;42.136;24.796;2022-11-20T14:27:34;2.92;;;0.95;;
10667;SDS011;5382;42.136;24.796;2022-11-20T14:30:04;11.05;;;1.05;;
10667;SDS011;5382;42.136;24.796;2022-11-20T14:32:31;3.05;;;0.80;;
10667;SDS011;5382;42.136;24.796;2022-11-20T14:35:02;4.15;;;0.77;;
10667;SDS011;5382;42.136;24.796;2022-11-20T14:37:36;4.30;;;0.70;;
10667;SDS011;5382;42.136;24.796;2022-11-20T14:40:21;2.13;;;0.75;;
10667;SDS011;5382;42.136;24.796;2022-11-20T14:42:54;4.20;;;1.05;;
10667;SDS011;5382;42.136;24.796;2022-11-20T14:45:21;2.72;;;0.80;;
10667;SDS011;5382;42.136;24.796;2022-11-20T14:47:49;2.70;;;0.90;;
10667;SDS011;5382;42.136;24.796;2022-11-20T14:50:19;10.02;;;3.40;;
10667;SDS011;5382;42.136;24.796;2022-11-20T14:52:53;3.55;;;1.52;;
10667;SDS011;5382;42.136;24.796;2022-11-20T14:55:30;2.55;;;1.10;;
10667;SDS011;5382;42.136;24.796;2022-11-20T14:58:02;3.45;;;1.25;;
10667;SDS011;5382;42.136;24.796;2022-11-20T15:00:31;2.70;;;1.50;;
10667;SDS011;5382;42.136;24.796;2022-11-20T15:02:59;2.65;;;1.40;;